createdAt,value
2022-08-23T00:01:31.189Z,16.04
2022-08-23T00:04:04.829Z,16.04
2022-08-23T00:06:32.949Z,16.06
2022-08-23T00:09:00.609Z,16.09
2022-08-23T00:11:53.118Z,16.12
2022-08-23T00:14:27.413Z,16.13
2022-08-23T00:16:57.575Z,16.16
2022-08-23T00:19:26.080Z,16.17
2022-08-23T00:21:56.115Z,16.18
2022-08-23T00:24:25.194Z,16.18
2022-08-23T00:27:07.644Z,16.17
2022-08-23T00:29:40.767Z,16.17
2022-08-23T00:32:11.433Z,16.16
2022-08-23T00:34:40.561Z,16.17
2022-08-23T00:37:09.859Z,16.17
2022-08-23T00:39:38.075Z,16.19
2022-08-23T00:42:30.064Z,16.18
2022-08-23T00:45:21.161Z,16.17
2022-08-23T00:47:50.886Z,16.16
2022-08-23T00:50:27.654Z,16.16
2022-08-23T00:53:08.509Z,16.16
2022-08-23T00:55:36.930Z,16.13
2022-08-23T00:58:04.981Z,16.15
2022-08-23T01:00:32.786Z,16.16
2022-08-23T01:03:02.757Z,16.16
2022-08-23T01:05:38.049Z,16.18
2022-08-23T01:08:05.689Z,16.21
2022-08-23T01:10:44.025Z,16.24
2022-08-23T01:13:16.812Z,16.26
2022-08-23T01:15:54.606Z,16.26
2022-08-23T01:18:26.289Z,16.24
2022-08-23T01:21:03.018Z,16.24
2022-08-23T01:23:39.041Z,16.23
2022-08-23T01:26:07.324Z,16.23
2022-08-23T01:28:39.525Z,16.23
2022-08-23T01:31:08.892Z,16.25
2022-08-23T01:33:38.923Z,16.27
2022-08-23T01:36:11.484Z,16.29
2022-08-23T01:38:39.687Z,16.33
2022-08-23T01:41:07.254Z,16.34
2022-08-23T01:43:35.675Z,16.32
2022-08-23T01:46:13.261Z,16.30
2022-08-23T01:48:41.395Z,16.31
2022-08-23T01:51:09.522Z,16.32
2022-08-23T01:53:37.193Z,16.34
2022-08-23T01:56:06.002Z,16.35
2022-08-23T01:58:36.878Z,16.35
2022-08-23T02:01:05.934Z,16.31
2022-08-23T02:03:37.259Z,16.27
2022-08-23T02:06:06.294Z,16.23
2022-08-23T02:08:52.522Z,16.18
2022-08-23T02:11:24.826Z,16.11
2022-08-23T02:13:54.127Z,16.09
2022-08-23T02:16:33.831Z,16.09
2022-08-23T02:19:04.237Z,16.07
2022-08-23T02:21:31.922Z,16.07
2022-08-23T02:24:03.634Z,16.07
2022-08-23T02:26:32.338Z,16.06
2022-08-23T02:29:05.896Z,16.08
2022-08-23T02:31:34.290Z,16.09
2022-08-23T02:34:02.480Z,16.10
2022-08-23T02:36:33.886Z,16.11
2022-08-23T02:39:02.329Z,16.13
2022-08-23T02:41:30.174Z,16.15
2022-08-23T02:43:58.069Z,16.18
2022-08-23T02:46:25.844Z,16.17
2022-08-23T02:48:53.859Z,16.17
2022-08-23T02:51:21.756Z,16.20
2022-08-23T02:53:49.692Z,16.19
2022-08-23T02:56:21.539Z,16.20
2022-08-23T02:58:54.384Z,16.20
2022-08-23T03:01:26.740Z,16.22
2022-08-23T03:03:57.828Z,16.23
2022-08-23T03:06:26.784Z,16.22
2022-08-23T03:08:56.617Z,16.23
2022-08-23T03:11:25.178Z,16.24
2022-08-23T03:13:56.322Z,16.24
2022-08-23T03:16:24.709Z,16.25
2022-08-23T03:18:52.458Z,16.25
2022-08-23T03:21:21.707Z,16.26
2022-08-23T03:23:49.780Z,16.26
2022-08-23T03:26:17.794Z,16.28
2022-08-23T03:28:46.504Z,16.28
2022-08-23T03:31:15.960Z,16.30
2022-08-23T03:34:00.496Z,16.32
2022-08-23T03:36:28.430Z,16.33
2022-08-23T03:38:58.008Z,16.35
2022-08-23T03:41:26.616Z,16.35
2022-08-23T03:43:54.778Z,16.35
2022-08-23T03:46:25.734Z,16.36
2022-08-23T03:49:02.524Z,16.38
2022-08-23T03:51:38.646Z,16.38
2022-08-23T03:54:06.847Z,16.40
2022-08-23T03:56:49.839Z,16.40
2022-08-23T03:59:17.881Z,16.38
2022-08-23T04:01:45.655Z,16.36
2022-08-23T04:04:13.507Z,16.35
2022-08-23T04:06:53.453Z,16.34
2022-08-23T04:09:21.174Z,16.32
2022-08-23T04:11:48.872Z,16.32
2022-08-23T04:14:17.049Z,16.30
2022-08-23T04:16:44.673Z,16.28
2022-08-23T04:19:14.874Z,16.26
2022-08-23T04:21:57.921Z,16.26
2022-08-23T04:24:28.789Z,16.24
2022-08-23T04:26:56.710Z,16.25
2022-08-23T04:29:34.280Z,16.26
2022-08-23T04:32:05.171Z,16.28
2022-08-23T04:34:34.393Z,16.26
2022-08-23T04:37:02.317Z,16.26
2022-08-23T04:39:30.239Z,16.25
2022-08-23T04:42:17.524Z,16.23
2022-08-23T04:44:45.764Z,16.21
2022-08-23T04:47:13.637Z,16.21
2022-08-23T04:49:41.824Z,16.24
2022-08-23T04:52:09.416Z,16.23
2022-08-23T04:54:37.689Z,16.24
2022-08-23T04:57:24.005Z,16.21
2022-08-23T04:59:51.672Z,16.23
2022-08-23T05:02:20.748Z,16.24
2022-08-23T05:04:48.372Z,16.25
2022-08-23T05:07:16.792Z,16.25
2022-08-23T05:09:44.407Z,16.23
2022-08-23T05:12:13.690Z,16.23
2022-08-23T05:14:41.459Z,16.22
2022-08-23T05:17:15.539Z,16.22
2022-08-23T05:19:44.269Z,16.24
2022-08-23T05:22:15.722Z,16.23
2022-08-23T05:25:06.292Z,16.24
2022-08-23T05:27:34.245Z,16.25
2022-08-23T05:30:02.200Z,16.26
2022-08-23T05:32:33.329Z,16.28
2022-08-23T05:35:01.427Z,16.29
2022-08-23T05:37:29.430Z,16.29
2022-08-23T05:39:57.022Z,16.27
2022-08-23T05:42:25.523Z,16.29
2022-08-23T05:44:54.053Z,16.30
2022-08-23T05:47:27.133Z,16.31
2022-08-23T05:50:15.131Z,16.32
2022-08-23T05:53:11.574Z,16.34
2022-08-23T05:55:42.452Z,16.35
2022-08-23T05:58:17.612Z,16.35
2022-08-23T06:00:46.393Z,16.37
2022-08-23T06:03:14.358Z,16.38
2022-08-23T06:05:42.393Z,16.41
2022-08-23T06:08:11.706Z,16.42
2022-08-23T06:10:42.291Z,16.44
2022-08-23T06:13:21.967Z,16.47
2022-08-23T06:15:50.183Z,16.48
2022-08-23T06:18:17.879Z,16.51
2022-08-23T06:20:46.698Z,16.55
2022-08-23T06:23:20.979Z,16.57
2022-08-23T06:25:48.887Z,16.59
2022-08-23T06:28:17.953Z,16.64
2022-08-23T06:30:47.250Z,16.68
2022-08-23T06:33:15.074Z,16.73
2022-08-23T06:36:13.806Z,16.76
2022-08-23T06:39:00.274Z,16.78
2022-08-23T06:42:37.155Z,16.77
2022-08-23T06:45:04.741Z,16.76
2022-08-23T06:47:42.617Z,16.75
2022-08-23T06:50:10.927Z,16.74
2022-08-23T06:53:17.094Z,16.76
2022-08-23T06:55:54.611Z,16.78
2022-08-23T06:58:26.512Z,16.79
2022-08-23T07:01:42.258Z,16.81
2022-08-23T07:04:11.013Z,16.83
2022-08-23T07:07:03.020Z,16.86
2022-08-23T07:09:31.954Z,16.89
2022-08-23T07:12:01.080Z,16.91
2022-08-23T07:14:29.929Z,16.95
2022-08-23T07:17:01.339Z,16.99
2022-08-23T07:19:32.631Z,17.00
2022-08-23T07:22:00.934Z,17.03
2022-08-23T07:24:33.004Z,17.06
2022-08-23T07:27:07.137Z,17.10
2022-08-23T07:29:39.878Z,17.12
2022-08-23T07:32:08.383Z,17.15
2022-08-23T07:34:37.085Z,17.18
2022-08-23T07:37:11.539Z,17.19
2022-08-23T07:39:44.525Z,17.25
2022-08-23T07:42:23.011Z,17.26
2022-08-23T07:44:53.811Z,17.27
2022-08-23T07:47:23.480Z,17.27
2022-08-23T07:49:52.217Z,17.27
2022-08-23T07:52:19.933Z,17.27
2022-08-23T07:54:49.453Z,17.27
2022-08-23T07:57:33.908Z,17.29
2022-08-23T08:00:21.810Z,17.30
2022-08-23T08:03:00.192Z,17.32
2022-08-23T08:05:37.464Z,17.32
2022-08-23T08:08:07.176Z,17.36
2022-08-23T08:10:40.937Z,17.39
2022-08-23T08:13:09.012Z,17.42
2022-08-23T08:15:42.203Z,17.46
2022-08-23T08:18:13.765Z,17.47
2022-08-23T08:21:17.587Z,17.50
2022-08-23T08:24:26.307Z,17.55
2022-08-23T08:26:58.876Z,17.60
2022-08-23T08:29:26.585Z,17.65
2022-08-23T08:31:54.555Z,17.70
2022-08-23T08:34:22.517Z,17.74
2022-08-23T08:36:53.973Z,17.79
2022-08-23T08:39:26.317Z,17.83
2022-08-23T08:42:04.181Z,17.87
2022-08-23T08:44:37.612Z,17.90
2022-08-23T08:47:16.791Z,17.91
2022-08-23T08:49:56.696Z,17.94
2022-08-23T08:52:27.891Z,17.97
2022-08-23T08:55:09.165Z,17.97
2022-08-23T08:57:41.153Z,18.01
2022-08-23T09:00:17.803Z,18.03
2022-08-23T09:02:47.211Z,18.04
2022-08-23T09:05:16.966Z,18.06
2022-08-23T09:08:03.570Z,18.10
2022-08-23T09:10:37.527Z,18.17
2022-08-23T09:13:13.558Z,18.28
2022-08-23T09:16:26.031Z,18.36
2022-08-23T09:18:57.074Z,18.43
2022-08-23T09:21:28.454Z,18.49
2022-08-23T09:24:01.058Z,18.52
2022-08-23T09:26:45.903Z,18.55
2022-08-23T09:29:19.688Z,18.58
2022-08-23T09:31:55.887Z,18.62
2022-08-23T09:34:30.472Z,18.68
2022-08-23T09:37:16.618Z,18.74
2022-08-23T09:39:53.458Z,18.79
2022-08-23T09:42:37.569Z,18.78
2022-08-23T09:45:35.105Z,18.73
2022-08-23T09:48:06.422Z,18.66
2022-08-23T09:50:57.110Z,18.64
2022-08-23T09:53:30.092Z,18.60
2022-08-23T09:56:11.523Z,18.57
2022-08-23T09:58:47.056Z,18.49
2022-08-23T10:01:27.429Z,18.45
2022-08-23T10:04:16.603Z,18.46
2022-08-23T10:06:46.463Z,18.51
2022-08-23T10:09:32.777Z,18.56
2022-08-23T10:12:04.104Z,18.57
2022-08-23T10:14:35.408Z,18.58
2022-08-23T10:17:30.615Z,18.61
2022-08-23T10:20:24.609Z,18.64
2022-08-23T10:23:06.414Z,18.70
2022-08-23T10:25:54.603Z,18.76
2022-08-23T10:29:13.678Z,18.80
2022-08-23T10:32:05.856Z,18.89
2022-08-23T10:35:21.142Z,18.99
2022-08-23T10:38:07.403Z,19.02
2022-08-23T10:41:23.360Z,19.06
2022-08-23T10:44:21.043Z,19.10
2022-08-23T10:47:04.735Z,19.21
2022-08-23T10:49:36.603Z,19.40
2022-08-23T10:52:09.828Z,19.64
2022-08-23T10:55:00.342Z,20.04
2022-08-23T10:57:40.358Z,20.54
2022-08-23T11:00:14.288Z,20.77
2022-08-23T11:02:51.124Z,20.90
2022-08-23T11:05:30.656Z,21.03
2022-08-23T11:08:12.016Z,21.26
2022-08-23T11:10:55.715Z,21.41
2022-08-23T11:13:32.367Z,21.44
2022-08-23T11:16:29.011Z,21.36
2022-08-23T11:18:58.056Z,21.26
2022-08-23T11:21:39.984Z,21.15
2022-08-23T11:24:31.137Z,20.96
2022-08-23T11:27:03.992Z,20.90
2022-08-23T11:29:37.746Z,20.89
2022-08-23T11:32:40.692Z,20.93
2022-08-23T11:35:40.532Z,21.08
2022-08-23T11:38:13.170Z,21.10
2022-08-23T11:40:52.181Z,21.10
2022-08-23T11:43:55.399Z,21.12
2022-08-23T11:46:23.030Z,21.22
2022-08-23T11:48:59.866Z,21.34
2022-08-23T11:51:52.535Z,21.33
2022-08-23T11:54:40.318Z,21.28
2022-08-23T11:57:34.277Z,21.45
2022-08-23T12:00:08.542Z,21.49
2022-08-23T12:02:39.219Z,21.55
2022-08-23T12:05:22.786Z,21.69
2022-08-23T12:08:03.058Z,21.75
2022-08-23T12:10:42.640Z,21.78
2022-08-23T12:13:24.918Z,21.78
2022-08-23T12:16:29.707Z,21.77
2022-08-23T12:19:02.838Z,21.77
2022-08-23T12:21:51.897Z,21.67
2022-08-23T12:24:41.081Z,21.61
2022-08-23T12:27:27.875Z,21.49
2022-08-23T12:30:01.341Z,21.43
2022-08-23T12:32:38.040Z,21.35
2022-08-23T12:35:24.058Z,21.36
2022-08-23T12:37:51.658Z,21.39
2022-08-23T12:40:30.122Z,21.46
2022-08-23T12:43:28.327Z,21.51
2022-08-23T12:46:01.485Z,21.57
2022-08-23T12:48:32.888Z,21.62
2022-08-23T12:51:10.810Z,21.58
2022-08-23T12:53:45.099Z,21.52
2022-08-23T12:56:31.456Z,21.40
2022-08-23T12:59:04.569Z,21.35
2022-08-23T13:01:35.791Z,21.40
2022-08-23T13:04:13.284Z,21.41
2022-08-23T13:06:55.504Z,21.53
2022-08-23T13:09:29.719Z,21.80
2022-08-23T13:11:59.556Z,22.10
2022-08-23T13:14:39.766Z,22.27
2022-08-23T13:17:25.735Z,22.12
2022-08-23T13:20:02.449Z,22.06
2022-08-23T13:22:32.784Z,21.83
2022-08-23T13:25:32.266Z,21.63
2022-08-23T13:28:07.555Z,21.55
2022-08-23T13:30:37.787Z,21.57
2022-08-23T13:33:08.430Z,21.62
2022-08-23T13:35:47.248Z,21.90
2022-08-23T13:38:23.384Z,22.60
2022-08-23T13:40:53.691Z,23.39
2022-08-23T13:43:45.896Z,24.31
2022-08-23T13:46:22.700Z,25.17
2022-08-23T13:49:16.836Z,25.49
2022-08-23T13:54:53.444Z,26.05
2022-08-23T13:57:22.397Z,26.05
2022-08-23T13:59:55.106Z,25.88
2022-08-23T14:02:24.163Z,25.75
2022-08-23T14:04:52.281Z,25.61
2022-08-23T14:07:20.118Z,25.62
2022-08-23T14:09:49.340Z,25.40
2022-08-23T14:12:24.754Z,25.13
2022-08-23T14:14:58.967Z,25.17
2022-08-23T14:17:27.517Z,25.36
2022-08-23T14:20:32.294Z,25.54
2022-08-23T14:22:42.998Z,25.46
2022-08-23T14:25:12.522Z,25.26
2022-08-23T14:27:42.572Z,25.12
2022-08-23T14:30:18.180Z,24.92
2022-08-23T14:32:45.743Z,24.55
2022-08-23T14:35:13.288Z,24.29
2022-08-23T14:40:28.964Z,23.82
2022-08-23T14:42:56.575Z,23.58
2022-08-23T14:45:24.238Z,23.37
2022-08-23T14:47:51.845Z,23.17
2022-08-23T14:50:19.604Z,22.86
2022-08-23T14:52:48.263Z,22.67
2022-08-23T14:55:15.916Z,22.56
2022-08-23T14:57:43.961Z,22.46
2022-08-23T15:00:15.991Z,22.42
2022-08-23T15:02:46.024Z,22.35
2022-08-23T15:05:14.632Z,22.21
2022-08-23T15:07:42.641Z,22.17
2022-08-23T15:10:49.334Z,22.12
2022-08-23T15:13:03.081Z,22.02
2022-08-23T15:15:42.021Z,21.98
2022-08-23T15:18:09.922Z,21.92
2022-08-23T15:20:38.891Z,21.84
2022-08-23T15:23:08.413Z,21.83
2022-08-23T15:25:39.324Z,21.80
2022-08-23T15:28:13.031Z,21.76
2022-08-23T15:30:43.640Z,21.62
2022-08-23T15:33:12.002Z,21.54
2022-08-23T15:35:43.640Z,21.44
2022-08-23T15:38:14.400Z,21.38
2022-08-23T15:40:42.812Z,21.33
2022-08-23T15:43:10.875Z,21.19
2022-08-23T15:45:38.806Z,21.07
2022-08-23T15:48:15.103Z,21.02
2022-08-23T15:50:44.791Z,20.94
2022-08-23T15:53:13.489Z,20.84
2022-08-23T15:55:42.347Z,20.84
2022-08-23T15:58:16.745Z,20.80
2022-08-23T16:00:45.080Z,20.77
2022-08-23T16:03:20.249Z,20.68
2022-08-23T16:05:52.249Z,20.60
2022-08-23T16:08:25.593Z,20.54
2022-08-23T16:10:53.484Z,20.57
2022-08-23T16:13:22.074Z,20.62
2022-08-23T16:15:50.034Z,20.67
2022-08-23T16:18:19.145Z,20.70
2022-08-23T16:20:46.807Z,20.76
2022-08-23T16:23:14.337Z,20.82
2022-08-23T16:25:42.502Z,20.87
2022-08-23T16:28:10.156Z,20.92
2022-08-23T16:30:37.750Z,20.91
2022-08-23T16:33:05.465Z,21.00
2022-08-23T16:35:33.087Z,21.17
2022-08-23T16:38:00.857Z,21.31
2022-08-23T16:40:28.505Z,21.43
2022-08-23T16:42:56.475Z,21.48
2022-08-23T16:45:25.668Z,21.63
2022-08-23T16:47:54.477Z,21.72
2022-08-23T16:50:22.381Z,21.76
2022-08-23T16:52:49.996Z,21.70
2022-08-23T16:55:17.589Z,21.68
2022-08-23T16:57:45.223Z,21.76
2022-08-23T17:00:14.187Z,21.83
2022-08-23T17:02:44.047Z,21.84
2022-08-23T17:05:16.805Z,21.75
2022-08-23T17:07:45.085Z,21.74
2022-08-23T17:10:14.585Z,21.70
2022-08-23T17:12:46.918Z,21.70
2022-08-23T17:15:20.494Z,21.67
2022-08-23T17:17:49.209Z,21.56
2022-08-23T17:20:18.110Z,21.48
2022-08-23T17:22:47.319Z,21.45
2022-08-23T17:25:16.567Z,21.36
2022-08-23T17:27:46.513Z,21.31
2022-08-23T17:30:16.906Z,21.31
2022-08-23T17:32:47.744Z,21.29
2022-08-23T17:35:18.461Z,21.23
2022-08-23T17:37:46.882Z,21.17
2022-08-23T17:40:21.191Z,21.18
2022-08-23T17:42:49.961Z,21.19
2022-08-23T17:45:18.595Z,21.14
2022-08-23T17:47:46.742Z,21.11
2022-08-23T17:50:16.737Z,21.07
2022-08-23T17:52:45.252Z,21.02
2022-08-23T17:55:17.167Z,20.99
2022-08-23T17:57:47.901Z,20.97
2022-08-23T18:00:18.138Z,20.95
2022-08-23T18:02:45.825Z,20.86
2022-08-23T18:05:13.620Z,20.77
2022-08-23T18:07:41.375Z,20.73
2022-08-23T18:10:12.116Z,20.69
2022-08-23T18:12:40.876Z,20.69
2022-08-23T18:15:09.213Z,20.64
2022-08-23T18:17:38.850Z,20.63
2022-08-23T18:20:09.797Z,20.61
2022-08-23T18:22:37.780Z,20.61
2022-08-23T18:25:07.177Z,20.61
2022-08-23T18:27:53.426Z,20.58
2022-08-23T18:30:21.296Z,20.52
2022-08-23T18:32:48.891Z,20.48
2022-08-23T18:35:17.686Z,20.47
2022-08-23T18:37:45.236Z,20.41
2022-08-23T18:40:13.387Z,20.36
2022-08-23T18:42:41.015Z,20.30
2022-08-23T18:45:09.401Z,20.27
2022-08-23T18:47:37.852Z,20.24
2022-08-23T18:50:07.446Z,20.21
2022-08-23T18:52:35.006Z,20.18
2022-08-23T18:55:02.836Z,20.18
2022-08-23T18:57:30.528Z,20.14
2022-08-23T18:59:58.171Z,20.13
2022-08-23T19:02:25.977Z,20.11
2022-08-23T19:04:53.655Z,20.10
2022-08-23T19:07:21.431Z,20.07
2022-08-23T19:09:49.415Z,19.99
2022-08-23T19:12:17.713Z,19.93
2022-08-23T19:14:46.511Z,19.88
2022-08-23T19:17:14.205Z,19.80
2022-08-23T19:19:41.829Z,19.73
2022-08-23T19:22:09.421Z,19.70
2022-08-23T19:24:36.971Z,19.65
2022-08-23T19:27:04.948Z,19.61
2022-08-23T19:29:33.125Z,19.55
2022-08-23T19:32:01.068Z,19.50
2022-08-23T19:34:28.905Z,19.46
2022-08-23T19:37:01.273Z,19.42
2022-08-23T19:39:29.860Z,19.36
2022-08-23T19:41:58.212Z,19.29
2022-08-23T19:44:26.199Z,19.22
2022-08-23T19:46:55.770Z,19.15
2022-08-23T19:49:23.521Z,19.06
2022-08-23T19:51:51.207Z,18.99
2022-08-23T19:54:18.903Z,18.92
2022-08-23T19:56:49.874Z,18.83
2022-08-23T19:59:20.449Z,18.74
2022-08-23T20:01:49.867Z,18.66
2022-08-23T20:04:19.377Z,18.58
2022-08-23T20:06:48.813Z,18.51
2022-08-23T20:09:17.805Z,18.45
2022-08-23T20:11:45.950Z,18.38
2022-08-23T20:14:14.148Z,18.33
2022-08-23T20:16:42.413Z,18.31
2022-08-23T20:19:11.135Z,18.30
2022-08-23T20:21:40.417Z,18.30
2022-08-23T20:24:10.190Z,18.27
2022-08-23T20:26:46.755Z,18.22
2022-08-23T20:29:18.641Z,18.16
2022-08-23T20:31:59.755Z,18.11
2022-08-23T20:34:28.367Z,18.04
2022-08-23T20:36:56.433Z,17.98
2022-08-23T20:39:24.850Z,17.97
2022-08-23T20:41:54.058Z,17.90
2022-08-23T20:44:25.545Z,17.84
2022-08-23T20:46:55.935Z,17.79
2022-08-23T20:49:26.356Z,17.73
2022-08-23T20:51:53.980Z,17.68
2022-08-23T20:54:23.288Z,17.64
2022-08-23T20:56:51.992Z,17.59
2022-08-23T20:59:20.758Z,17.55
2022-08-23T21:01:48.918Z,17.51
2022-08-23T21:04:17.545Z,17.48
2022-08-23T21:06:50.059Z,17.43
2022-08-23T21:09:20.608Z,17.38
2022-08-23T21:11:51.411Z,17.33
2022-08-23T21:14:20.702Z,17.29
2022-08-23T21:16:48.619Z,17.25
2022-08-23T21:19:17.297Z,17.23
2022-08-23T21:21:45.189Z,17.23
2022-08-23T21:24:12.919Z,17.19
2022-08-23T21:26:41.440Z,17.17
2022-08-23T21:29:09.950Z,17.15
2022-08-23T21:31:37.893Z,17.13
2022-08-23T21:34:06.107Z,17.09
2022-08-23T21:36:34.032Z,17.06
2022-08-23T21:39:01.620Z,17.00
2022-08-23T21:41:45.213Z,16.98
2022-08-23T21:44:19.060Z,16.94
2022-08-23T21:46:49.198Z,16.88
2022-08-23T21:49:18.364Z,16.81
2022-08-23T21:51:47.391Z,16.78
2022-08-23T21:54:16.182Z,16.75
2022-08-23T21:56:44.395Z,16.70
2022-08-23T21:59:16.808Z,16.65
2022-08-23T22:01:45.211Z,16.59
2022-08-23T22:04:14.832Z,16.58
2022-08-23T22:06:45.403Z,16.55
2022-08-23T22:09:18.337Z,16.54
2022-08-23T22:11:48.435Z,16.53
2022-08-23T22:14:20.197Z,16.50
2022-08-23T22:16:49.545Z,16.48
2022-08-23T22:19:22.992Z,16.45
2022-08-23T22:21:52.898Z,16.40
2022-08-23T22:24:25.601Z,16.39
2022-08-23T22:26:55.630Z,16.39
2022-08-23T22:29:23.580Z,16.38
2022-08-23T22:31:51.435Z,16.38
2022-08-23T22:34:19.158Z,16.36
2022-08-23T22:36:51.361Z,16.35
2022-08-23T22:39:21.301Z,16.37
2022-08-23T22:41:49.553Z,16.39
2022-08-23T22:44:17.376Z,16.41
2022-08-23T22:46:45.147Z,16.41
2022-08-23T22:49:13.098Z,16.41
2022-08-23T22:51:42.283Z,16.42
2022-08-23T22:54:11.425Z,16.41
2022-08-23T22:56:38.917Z,16.42
2022-08-23T22:59:07.327Z,16.43
2022-08-23T23:01:38.641Z,16.45
2022-08-23T23:04:08.906Z,16.46
2022-08-23T23:06:37.492Z,16.47
2022-08-23T23:09:07.340Z,16.46
2022-08-23T23:11:35.853Z,16.48
2022-08-23T23:14:05.350Z,16.49
2022-08-23T23:16:33.752Z,16.52
2022-08-23T23:19:20.146Z,16.54
2022-08-23T23:21:50.528Z,16.56
2022-08-23T23:24:21.607Z,16.57
2022-08-23T23:26:50.112Z,16.56
2022-08-23T23:29:18.012Z,16.56
2022-08-23T23:31:45.806Z,16.58
2022-08-23T23:34:13.846Z,16.58
2022-08-23T23:36:41.796Z,16.60
2022-08-23T23:39:10.906Z,16.62
2022-08-23T23:41:38.686Z,16.66
2022-08-23T23:44:06.964Z,16.65
2022-08-23T23:46:35.121Z,16.65
2022-08-23T23:49:02.768Z,16.63
2022-08-23T23:51:31.073Z,16.63
2022-08-23T23:54:00.932Z,16.60
2022-08-23T23:56:30.188Z,16.56
2022-08-23T23:58:58.761Z,16.55
